createdAt,value
2023-03-16T00:01:19.061Z,4.06
2023-03-16T00:06:20.571Z,4.03
2023-03-16T00:11:22.095Z,4.00
2023-03-16T00:16:23.648Z,4.00
2023-03-16T00:21:25.172Z,3.95
2023-03-16T00:26:26.658Z,3.89
2023-03-16T00:31:28.272Z,3.84
2023-03-16T00:36:30.369Z,3.81
2023-03-16T00:41:31.925Z,3.77
2023-03-16T00:46:33.533Z,3.74
2023-03-16T00:51:35.874Z,3.66
2023-03-16T00:56:37.459Z,3.59
2023-03-16T01:01:39.293Z,3.57
2023-03-16T01:06:41.803Z,3.52
2023-03-16T01:11:43.800Z,3.52
2023-03-16T01:16:45.972Z,3.50
2023-03-16T01:21:47.564Z,3.48
2023-03-16T01:26:50.259Z,3.45
2023-03-16T01:31:52.129Z,3.44
2023-03-16T01:36:54.437Z,3.42
2023-03-16T01:42:03.601Z,3.41
2023-03-16T01:47:05.934Z,3.40
2023-03-16T01:52:16.672Z,3.41
2023-03-16T01:57:23.699Z,3.44
2023-03-16T02:02:29.486Z,3.44
2023-03-16T02:07:35.979Z,3.44
2023-03-16T02:12:37.748Z,3.42
2023-03-16T02:17:42.700Z,3.41
2023-03-16T02:22:48.820Z,3.39
2023-03-16T02:28:15.892Z,3.38
2023-03-16T02:33:21.371Z,3.36
2023-03-16T02:38:22.993Z,3.37
2023-03-16T02:43:33.447Z,3.39
2023-03-16T02:49:32.665Z,3.39
2023-03-16T02:54:34.324Z,3.40
2023-03-16T02:59:36.110Z,3.39
2023-03-16T03:04:37.864Z,3.37
2023-03-16T03:09:45.190Z,3.35
2023-03-16T03:14:46.734Z,3.34
2023-03-16T03:19:51.869Z,3.32
2023-03-16T03:24:53.634Z,3.30
2023-03-16T03:29:55.219Z,3.28
2023-03-16T03:34:56.879Z,3.26
2023-03-16T03:39:59.286Z,3.25
2023-03-16T03:45:01.171Z,3.21
2023-03-16T03:50:02.935Z,3.22
2023-03-16T03:55:08.807Z,3.19
2023-03-16T04:00:13.349Z,3.18
2023-03-16T04:05:14.940Z,3.16
2023-03-16T04:10:16.674Z,3.15
2023-03-16T04:15:18.395Z,3.16
2023-03-16T04:20:34.741Z,3.13
2023-03-16T04:25:38.719Z,3.11
2023-03-16T04:30:42.971Z,3.09
2023-03-16T04:36:00.696Z,3.07
2023-03-16T04:41:04.637Z,3.01
2023-03-16T04:46:13.131Z,3.00
2023-03-16T04:51:15.430Z,2.99
2023-03-16T04:56:26.054Z,2.98
2023-03-16T05:01:33.360Z,2.99
2023-03-16T05:06:37.510Z,2.97
2023-03-16T05:11:40.182Z,2.96
2023-03-16T05:16:44.917Z,2.94
2023-03-16T05:21:46.568Z,2.92
2023-03-16T05:26:48.201Z,2.91
2023-03-16T05:31:51.874Z,2.91
2023-03-16T05:36:57.348Z,2.90
2023-03-16T05:41:59.482Z,2.92
2023-03-16T05:47:12.473Z,2.93
2023-03-16T05:52:18.351Z,2.94
2023-03-16T05:57:20.117Z,2.96
2023-03-16T06:02:25.370Z,2.99
2023-03-16T06:07:29.172Z,3.03
2023-03-16T06:12:31.744Z,3.03
2023-03-16T06:17:34.654Z,3.08
2023-03-16T06:22:41.620Z,3.08
2023-03-16T06:27:43.515Z,3.10
2023-03-16T06:32:48.776Z,3.14
2023-03-16T06:37:50.399Z,3.18
2023-03-16T06:43:07.476Z,3.22
2023-03-16T06:48:09.867Z,3.25
2023-03-16T06:53:11.580Z,3.30
2023-03-16T06:58:13.983Z,3.35
2023-03-16T07:03:15.632Z,3.41
2023-03-16T07:08:22.906Z,3.46
2023-03-16T07:13:24.535Z,3.51
2023-03-16T07:18:26.321Z,3.57
2023-03-16T07:23:28.706Z,3.60
2023-03-16T07:28:36.556Z,3.63
2023-03-16T07:33:40.202Z,3.65
2023-03-16T07:38:45.321Z,3.69
2023-03-16T07:43:48.649Z,3.76
2023-03-16T07:48:50.404Z,3.84
2023-03-16T07:53:52.073Z,3.90
2023-03-16T07:59:00.345Z,3.98
2023-03-16T08:04:02.988Z,4.07
2023-03-16T08:09:05.793Z,4.16
2023-03-16T08:14:11.154Z,4.23
2023-03-16T08:19:35.670Z,4.28
2023-03-16T08:24:39.514Z,4.31
2023-03-16T08:29:43.904Z,4.39
2023-03-16T08:34:50.099Z,4.45
2023-03-16T08:39:53.094Z,4.57
2023-03-16T08:44:55.804Z,4.66
2023-03-16T08:49:58.744Z,4.73
2023-03-16T08:55:03.923Z,4.83
2023-03-16T09:00:13.498Z,4.92
2023-03-16T09:05:16.020Z,5.04
2023-03-16T09:10:19.751Z,5.12
2023-03-16T09:15:21.653Z,5.23
2023-03-16T09:20:35.150Z,5.36
2023-03-16T09:25:36.841Z,5.50
2023-03-16T09:30:38.344Z,5.61
2023-03-16T09:35:39.880Z,5.69
2023-03-16T09:40:41.639Z,5.73
2023-03-16T09:45:54.102Z,5.73
2023-03-16T09:50:56.865Z,5.76
2023-03-16T09:56:15.689Z,5.85
2023-03-16T10:01:43.363Z,5.92
2023-03-16T10:07:12.173Z,5.99
2023-03-16T10:12:14.542Z,6.06
2023-03-16T10:17:29.116Z,6.19
2023-03-16T10:22:34.804Z,6.32
2023-03-16T10:27:38.561Z,6.43
2023-03-16T10:32:40.378Z,6.57
2023-03-16T10:37:41.860Z,6.65
2023-03-16T10:42:43.844Z,6.73
2023-03-16T10:47:45.409Z,6.86
2023-03-16T10:52:49.583Z,6.97
2023-03-16T10:57:55.014Z,7.08
2023-03-16T11:02:59.773Z,7.14
2023-03-16T11:08:25.527Z,7.20
2023-03-16T11:13:35.877Z,7.30
2023-03-16T11:18:43.847Z,7.39
2023-03-16T11:23:52.751Z,7.44
2023-03-16T11:29:09.540Z,7.56
2023-03-16T11:34:27.418Z,7.68
2023-03-16T11:40:02.339Z,7.79
2023-03-16T11:45:32.841Z,7.91
2023-03-16T11:50:47.071Z,8.03
2023-03-16T11:56:15.679Z,8.21
2023-03-16T12:01:28.517Z,8.36
2023-03-16T12:06:38.668Z,8.52
2023-03-16T12:12:04.684Z,8.65
2023-03-16T12:17:09.213Z,8.80
2023-03-16T12:22:20.094Z,8.92
2023-03-16T12:27:38.875Z,9.09
2023-03-16T12:33:00.950Z,9.21
2023-03-16T12:38:22.620Z,9.34
2023-03-16T12:43:54.789Z,9.46
2023-03-16T12:49:01.171Z,9.54
2023-03-16T12:54:05.855Z,9.64
2023-03-16T12:59:07.978Z,9.72
2023-03-16T13:04:15.688Z,9.84
2023-03-16T13:09:28.412Z,9.95
2023-03-16T13:14:44.137Z,10.08
2023-03-16T13:19:58.705Z,10.24
2023-03-16T13:25:22.758Z,10.33
2023-03-16T13:30:28.882Z,10.45
2023-03-16T13:35:31.846Z,10.58
2023-03-16T13:40:33.625Z,10.69
2023-03-16T13:45:38.818Z,10.75
2023-03-16T13:50:42.437Z,10.82
2023-03-16T13:55:47.106Z,10.89
2023-03-16T14:00:48.881Z,10.98
2023-03-16T14:05:50.456Z,11.10
2023-03-16T14:10:59.824Z,11.24
2023-03-16T14:16:11.937Z,11.40
2023-03-16T14:21:17.694Z,11.57
2023-03-16T14:26:23.139Z,11.73
2023-03-16T14:31:34.137Z,11.86
2023-03-16T14:36:39.035Z,11.92
2023-03-16T14:41:40.637Z,12.03
2023-03-16T14:46:42.727Z,12.17
2023-03-16T14:51:46.873Z,12.33
2023-03-16T14:56:51.692Z,12.46
2023-03-16T15:01:55.205Z,12.54
2023-03-16T15:06:57.834Z,12.58
2023-03-16T15:11:59.546Z,12.53
2023-03-16T15:17:01.633Z,12.55
2023-03-16T15:22:04.566Z,12.64
2023-03-16T15:27:22.743Z,12.73
2023-03-16T15:32:24.403Z,12.85
2023-03-16T15:37:27.626Z,12.94
2023-03-16T15:42:29.465Z,13.04
2023-03-16T15:47:31.372Z,13.09
2023-03-16T15:52:36.675Z,13.07
2023-03-16T15:57:38.298Z,13.02
2023-03-16T16:02:39.842Z,12.93
2023-03-16T16:07:41.509Z,12.84
2023-03-16T16:12:51.409Z,12.76
2023-03-16T16:18:19.189Z,12.66
2023-03-16T16:23:15.772Z,12.55
2023-03-16T16:28:39.268Z,12.42
2023-03-16T16:33:40.865Z,12.30
2023-03-16T16:38:42.395Z,12.21
2023-03-16T16:43:47.548Z,12.12
2023-03-16T16:48:52.115Z,11.99
2023-03-16T16:53:55.872Z,11.88
2023-03-16T16:59:01.532Z,11.78
2023-03-16T17:04:03.422Z,11.64
2023-03-16T17:09:05.822Z,11.49
2023-03-16T17:14:08.270Z,11.35
2023-03-16T17:19:18.387Z,11.22
2023-03-16T17:24:19.919Z,11.09
2023-03-16T17:29:31.319Z,10.95
2023-03-16T17:34:34.176Z,10.82
2023-03-16T17:39:36.908Z,10.69
2023-03-16T17:44:44.013Z,10.56
2023-03-16T17:49:48.629Z,10.45
2023-03-16T17:54:51.973Z,10.34
2023-03-16T17:59:53.855Z,10.26
2023-03-16T18:04:55.390Z,10.14
2023-03-16T18:09:56.877Z,10.03
2023-03-16T18:14:58.710Z,9.97
2023-03-16T18:20:00.332Z,9.91
2023-03-16T18:25:02.123Z,9.85
2023-03-16T18:30:03.910Z,9.75
2023-03-16T18:35:06.773Z,9.69
2023-03-16T18:40:17.294Z,9.63
2023-03-16T18:45:18.903Z,9.57
2023-03-16T18:50:27.619Z,9.53
2023-03-16T18:55:30.672Z,9.48
2023-03-16T19:00:33.442Z,9.44
2023-03-16T19:05:36.697Z,9.37
2023-03-16T19:10:52.749Z,9.32
2023-03-16T19:15:55.946Z,9.26
2023-03-16T19:20:57.600Z,9.22
2023-03-16T19:25:59.154Z,9.14
2023-03-16T19:31:01.951Z,9.09
2023-03-16T19:36:04.750Z,9.03
2023-03-16T19:41:18.285Z,9.02
2023-03-16T19:46:20.372Z,8.98
2023-03-16T19:51:22.264Z,8.93
2023-03-16T19:56:26.603Z,8.90
2023-03-16T20:01:32.952Z,8.85
2023-03-16T20:06:34.736Z,8.81
2023-03-16T20:11:36.469Z,8.79
2023-03-16T20:16:38.025Z,8.76
2023-03-16T20:21:39.574Z,8.72
2023-03-16T20:26:41.144Z,8.70
2023-03-16T20:31:42.751Z,8.67
2023-03-16T20:36:44.294Z,8.64
2023-03-16T20:41:45.885Z,8.62
2023-03-16T20:46:47.652Z,8.60
2023-03-16T20:51:49.812Z,8.59
2023-03-16T20:56:51.480Z,8.57
2023-03-16T21:01:55.680Z,8.51
2023-03-16T21:06:57.547Z,8.48
2023-03-16T21:11:59.178Z,8.45
2023-03-16T21:17:01.049Z,8.40
2023-03-16T21:22:02.576Z,8.37
2023-03-16T21:27:04.081Z,8.35
2023-03-16T21:32:16.519Z,8.32
2023-03-16T21:37:20.827Z,8.28
2023-03-16T21:42:22.403Z,8.24
2023-03-16T21:47:27.955Z,8.20
2023-03-16T21:52:30.271Z,8.14
2023-03-16T21:57:32.298Z,8.08
2023-03-16T22:02:35.920Z,8.04
2023-03-16T22:07:37.545Z,7.98
2023-03-16T22:12:39.043Z,7.93
2023-03-16T22:17:40.762Z,7.89
2023-03-16T22:22:42.584Z,7.86
2023-03-16T22:27:44.306Z,7.81
2023-03-16T22:32:49.093Z,7.76
2023-03-16T22:37:51.013Z,7.73
2023-03-16T22:42:52.553Z,7.69
2023-03-16T22:47:56.730Z,7.65
2023-03-16T22:53:02.601Z,7.61
2023-03-16T22:58:15.362Z,7.55
2023-03-16T23:03:19.741Z,7.52
2023-03-16T23:08:23.483Z,7.50
2023-03-16T23:13:25.933Z,7.45
2023-03-16T23:18:27.418Z,7.42
2023-03-16T23:23:28.931Z,7.38
2023-03-16T23:28:30.404Z,7.34
2023-03-16T23:33:32.069Z,7.32
2023-03-16T23:38:33.662Z,7.27
2023-03-16T23:43:35.548Z,7.24
2023-03-16T23:48:39.045Z,7.22
2023-03-16T23:53:41.881Z,7.19
2023-03-16T23:58:43.674Z,7.16
